FTTJ

Details ICAO FTTJ (NDJ)
Name Ndjamena Hassan Djamous
Region Chad
Timezone Africa/Ndjamena (UTC+1.0)
Plans Departing 135
Arriving 117
Stats Elevation 968 ft / 295 m (AMSL)
Location 12.133718° 15.033962°
Runways 1
Magnetic Variation 1.226° E
Sunrise 2018-05-20 04:36:16 UTC / 2018-05-20 05:36:16 Local
Sunset 2018-05-20 17:19:21 UTC / 2018-05-20 18:19:21 Local
Advertisement - Login to hide

Runways

ID Width Length Bearing (true) Bearing (mag) Surface Threshold Offset Overrun Length
05 148 ft / 45 m 9,200 ft / 2,804 m 45.72° 44.49° Asphalt 0 ft / 0 m 130 ft / 40 m
23 148 ft / 45 m 9,200 ft / 2,804 m 225.72° 224.49° Asphalt 0 ft / 0 m 200 ft / 61 m

Approach Navaids

Runway Type Ident Frequency Range Bearing (true) Bearing (mag) Slope Elevation
05 Localiser IFL 109.90 MHz 18 nm / 33 km 45.80° 44.58° - 968 ft / 295 m (AMSL)
05 Glidescope IFL 109.90 MHz 10 nm / 19 km 45.72° 44.49° 3.00° 968 ft / 295 m (AMSL)

Map

Weather


0- 5 10 15 20 25 30 35+ Temperature / ° C

Clouds and Precipitation
Forecast for 2018-05-20 12:00 UTC. Updated 2 hours ago

Ground ~20,000 ft ~40,000 ft Winds

METAR

FTTJ 201300Z 32008KT 320V060 CAVOK 43/04 Q1003 NOSIG

TAF

TAF FTTJ 201100Z 2012/2118 04010KT 8000 NSC TEMPO 2114/2118 VRB18G30KT 2500 BLDU TS

Frequencies

Tower 119.70 MHz TWR
Approach 119.70 MHz APP
Warning: Do not use this data for real-world aviation or navigation. No guarantee of current accuracy is given.